Terminal Aerodrome Forecast
Issued by NWS Sterling, VA

Current Version | Previous Version | Text Only | Print | Product List | Glossary Off
Versions: 1 2 3 4 5 6 7 8 9 10 11 12 13 14 15 16 17 18 19 20 21 22 23

000
FTUS41 KLWX 282100 AAA
TAFDCA
TAF AMD
KDCA 282103Z 2821/2918 33012KT P6SM SKC
     FM282300 32008KT P6SM SKC
     FM290400 33004KT P6SM SKC
     FM291400 13004KT P6SM SCT080 OVC120
     FM291700 16008KT P6SM SCT060 OVC100=

USA.gov is the U.S. government's official web portal to all federal, state and local government web resources and services.